createdAt,value
2022-12-04T00:01:14.196Z,3.70
2022-12-04T00:03:42.009Z,3.80
2022-12-04T00:06:11.635Z,3.80
2022-12-04T00:08:39.877Z,3.90
2022-12-04T00:11:10.844Z,3.90
2022-12-04T00:13:40.006Z,4.00
2022-12-04T00:16:09.523Z,3.90
2022-12-04T00:18:37.308Z,4.00
2022-12-04T00:21:06.103Z,3.90
2022-12-04T00:23:34.170Z,3.90
2022-12-04T00:26:02.214Z,4.00
2022-12-04T00:28:31.258Z,4.00
2022-12-04T00:30:58.986Z,4.00
2022-12-04T00:33:26.853Z,4.00
2022-12-04T00:35:58.742Z,3.90
2022-12-04T00:38:26.477Z,4.00
2022-12-04T00:40:54.796Z,4.00
2022-12-04T00:43:23.983Z,3.90
2022-12-04T00:45:53.286Z,4.00
2022-12-04T00:48:21.052Z,3.80
2022-12-04T00:50:48.820Z,3.80
2022-12-04T00:53:17.897Z,3.60
2022-12-04T00:55:45.864Z,3.70
2022-12-04T00:58:14.038Z,3.70
2022-12-04T01:00:43.218Z,3.70
2022-12-04T01:03:12.605Z,3.80
2022-12-04T01:05:41.257Z,3.80
2022-12-04T01:08:09.476Z,3.80
2022-12-04T01:10:39.199Z,3.80
2022-12-04T01:13:06.889Z,3.80
2022-12-04T01:15:35.067Z,4.00
2022-12-04T01:18:02.749Z,4.00
2022-12-04T01:20:31.994Z,4.00
2022-12-04T01:22:59.836Z,4.00
2022-12-04T01:25:27.682Z,4.00
2022-12-04T01:27:55.574Z,3.90
2022-12-04T01:30:58.956Z,3.60
2022-12-04T01:33:34.809Z,3.80
2022-12-04T01:36:05.733Z,3.80
2022-12-04T01:38:34.559Z,3.90
2022-12-04T01:41:02.626Z,3.80
2022-12-04T01:43:32.720Z,3.90
2022-12-04T01:46:01.631Z,3.80
2022-12-04T01:48:32.521Z,3.80
2022-12-04T01:51:08.153Z,3.80
2022-12-04T01:53:37.531Z,3.70
2022-12-04T01:56:06.230Z,3.70
2022-12-04T01:58:37.845Z,3.80
2022-12-04T02:01:09.044Z,3.70
2022-12-04T02:03:37.475Z,3.90
2022-12-04T02:06:07.881Z,3.80
2022-12-04T02:08:37.149Z,3.80
2022-12-04T02:11:14.883Z,3.80
2022-12-04T02:13:54.679Z,3.80
2022-12-04T02:16:30.373Z,3.80
2022-12-04T02:19:05.919Z,3.80
2022-12-04T02:21:39.003Z,3.80
2022-12-04T02:24:32.867Z,3.80
2022-12-04T02:27:04.489Z,3.70
2022-12-04T02:29:40.384Z,3.80
2022-12-04T02:32:18.644Z,3.80
2022-12-04T02:34:54.239Z,3.70
2022-12-04T02:37:26.940Z,3.70
2022-12-04T02:40:00.770Z,3.90
2022-12-04T02:42:39.488Z,3.70
2022-12-04T02:45:12.839Z,3.80
2022-12-04T02:47:43.011Z,3.90
2022-12-04T02:50:14.561Z,3.70
2022-12-04T02:52:45.217Z,3.70
2022-12-04T02:55:17.534Z,3.70
2022-12-04T02:57:52.433Z,3.70
2022-12-04T03:00:23.223Z,3.80
2022-12-04T03:02:56.760Z,3.90
2022-12-04T03:05:30.742Z,3.90
2022-12-04T03:08:03.914Z,4.00
2022-12-04T03:10:35.814Z,3.70
2022-12-04T03:13:09.009Z,3.70
2022-12-04T03:15:42.696Z,3.90
2022-12-04T03:18:15.826Z,3.90
2022-12-04T03:20:44.533Z,3.60
2022-12-04T03:23:15.782Z,3.90
2022-12-04T03:25:48.329Z,3.90
2022-12-04T03:28:23.884Z,3.90
2022-12-04T03:30:59.740Z,3.80
2022-12-04T03:33:33.358Z,3.70
2022-12-04T03:36:06.655Z,3.70
2022-12-04T03:38:39.900Z,3.60
2022-12-04T03:41:15.154Z,3.70
2022-12-04T03:43:49.971Z,3.70
2022-12-04T03:46:27.333Z,3.80
2022-12-04T03:49:00.737Z,3.80
2022-12-04T03:51:34.524Z,3.80
2022-12-04T03:54:06.268Z,3.80
2022-12-04T03:56:37.734Z,3.70
2022-12-04T03:59:11.018Z,3.70
2022-12-04T04:01:46.180Z,3.70
2022-12-04T04:04:19.021Z,3.80
2022-12-04T04:06:50.699Z,3.90
2022-12-04T04:09:22.989Z,3.80
2022-12-04T04:11:58.008Z,3.80
2022-12-04T04:14:47.934Z,3.90
2022-12-04T04:17:38.681Z,4.00
2022-12-04T04:20:30.807Z,3.80
2022-12-04T04:23:17.983Z,3.70
2022-12-04T04:25:48.491Z,3.80
2022-12-04T04:28:34.041Z,3.70
2022-12-04T04:31:08.405Z,3.80
2022-12-04T04:33:45.840Z,3.90
2022-12-04T04:36:19.587Z,3.90
2022-12-04T04:38:56.924Z,3.70
2022-12-04T04:41:33.017Z,4.00
2022-12-04T04:44:07.023Z,3.90
2022-12-04T04:46:39.373Z,3.90
2022-12-04T04:49:11.797Z,4.00
2022-12-04T04:51:39.949Z,3.80
2022-12-04T04:54:11.484Z,4.10
2022-12-04T04:56:45.428Z,4.00
2022-12-04T04:59:14.419Z,4.00
2022-12-04T05:01:44.533Z,4.00
2022-12-04T05:04:14.134Z,4.10
2022-12-04T05:06:42.078Z,4.10
2022-12-04T05:09:11.034Z,3.80
2022-12-04T05:11:47.263Z,4.20
2022-12-04T05:14:15.165Z,4.20
2022-12-04T05:16:43.245Z,4.20
2022-12-04T05:19:28.496Z,4.20
2022-12-04T05:22:09.129Z,4.20
2022-12-04T05:25:34.816Z,4.20
2022-12-04T05:28:36.302Z,4.30
2022-12-04T05:31:34.191Z,4.30
2022-12-04T05:34:11.110Z,4.20
2022-12-04T05:36:51.956Z,4.10
2022-12-04T05:39:24.263Z,4.20
2022-12-04T05:41:57.871Z,4.10
2022-12-04T05:44:26.310Z,4.20
2022-12-04T05:46:54.222Z,4.20
2022-12-04T05:49:56.445Z,4.20
2022-12-04T05:52:38.433Z,4.20
2022-12-04T05:55:09.759Z,4.20
2022-12-04T05:58:08.323Z,4.20
2022-12-04T06:00:51.843Z,4.10
2022-12-04T06:03:49.622Z,4.20
2022-12-04T06:06:22.827Z,4.30
2022-12-04T06:08:59.550Z,4.30
2022-12-04T06:11:30.570Z,4.30
2022-12-04T06:13:59.733Z,4.20
2022-12-04T06:16:29.140Z,4.30
2022-12-04T06:18:58.681Z,4.30
2022-12-04T06:21:29.155Z,4.30
2022-12-04T06:23:57.060Z,4.40
2022-12-04T06:26:25.763Z,4.40
2022-12-04T06:28:56.833Z,4.30
2022-12-04T06:31:26.258Z,4.40
2022-12-04T06:33:54.657Z,4.30
2022-12-04T06:36:24.041Z,4.30
2022-12-04T06:38:55.715Z,4.30
2022-12-04T06:41:24.951Z,4.30
2022-12-04T06:43:53.381Z,4.20
2022-12-04T06:46:24.997Z,4.30
2022-12-04T06:48:53.364Z,4.30
2022-12-04T06:51:23.243Z,4.20
2022-12-04T06:53:51.207Z,4.30
2022-12-04T06:56:21.184Z,4.30
2022-12-04T06:58:50.769Z,4.30
2022-12-04T07:01:23.082Z,4.10
2022-12-04T07:03:51.918Z,4.10
2022-12-04T07:06:21.850Z,4.10
2022-12-04T07:08:54.153Z,4.10
2022-12-04T07:11:23.124Z,4.10
2022-12-04T07:13:53.464Z,4.00
2022-12-04T07:16:23.993Z,4.20
2022-12-04T07:18:53.681Z,4.20
2022-12-04T07:21:24.105Z,4.30
2022-12-04T07:23:57.359Z,4.10
2022-12-04T07:26:29.725Z,4.20
2022-12-04T07:28:58.375Z,4.10
2022-12-04T07:31:29.381Z,4.20
2022-12-04T07:34:00.507Z,4.10
2022-12-04T07:36:31.273Z,4.20
2022-12-04T07:38:59.147Z,4.20
2022-12-04T07:41:37.069Z,4.20
2022-12-04T07:44:08.017Z,4.20
2022-12-04T07:46:37.276Z,4.20
2022-12-04T07:49:27.570Z,4.10
2022-12-04T07:52:00.390Z,4.00
2022-12-04T07:54:28.404Z,4.00
2022-12-04T07:56:56.691Z,3.90
2022-12-04T07:59:27.748Z,3.90
2022-12-04T08:01:58.837Z,4.10
2022-12-04T08:04:26.968Z,4.10
2022-12-04T08:06:54.957Z,4.00
2022-12-04T08:09:50.843Z,4.10
2022-12-04T08:13:00.041Z,3.90
2022-12-04T08:15:45.548Z,4.10
2022-12-04T08:18:42.259Z,4.10
2022-12-04T08:21:13.908Z,4.10
2022-12-04T08:23:44.234Z,4.00
2022-12-04T08:26:13.185Z,4.00
2022-12-04T08:28:41.263Z,3.90
2022-12-04T08:31:12.037Z,3.90
2022-12-04T08:33:46.155Z,3.90
2022-12-04T08:36:20.724Z,4.10
2022-12-04T08:39:17.121Z,4.00
2022-12-04T08:41:45.282Z,4.00
2022-12-04T08:44:17.917Z,4.10
2022-12-04T08:46:45.840Z,3.90
2022-12-04T08:49:15.181Z,4.00
2022-12-04T08:51:43.181Z,3.90
2022-12-04T08:54:14.359Z,4.00
2022-12-04T08:56:44.463Z,3.90
2022-12-04T08:59:14.159Z,4.00
2022-12-04T09:02:02.289Z,4.00
2022-12-04T09:04:31.937Z,4.00
2022-12-04T09:07:00.203Z,4.10
2022-12-04T09:09:28.068Z,4.10
2022-12-04T09:11:56.186Z,4.10
2022-12-04T09:14:26.044Z,3.90
2022-12-04T09:16:54.221Z,3.90
2022-12-04T09:19:22.167Z,3.80
2022-12-04T09:21:51.356Z,3.90
2022-12-04T09:24:19.336Z,4.00
2022-12-04T09:26:47.175Z,4.10
2022-12-04T09:29:15.562Z,4.20
2022-12-04T09:31:43.638Z,4.30
2022-12-04T09:34:13.831Z,4.10
2022-12-04T09:36:41.624Z,4.10
2022-12-04T09:39:11.642Z,4.10
2022-12-04T09:41:58.275Z,4.20
2022-12-04T09:44:30.752Z,4.30
2022-12-04T09:47:01.791Z,4.20
2022-12-04T09:49:37.795Z,4.30
2022-12-04T09:52:10.788Z,4.30
2022-12-04T09:54:43.620Z,4.10
2022-12-04T09:57:17.452Z,4.30
2022-12-04T09:59:46.645Z,4.30
2022-12-04T10:02:33.733Z,4.30
2022-12-04T10:05:01.983Z,4.10
2022-12-04T10:07:34.549Z,4.30
2022-12-04T10:10:07.283Z,4.30
2022-12-04T10:12:49.436Z,4.30
2022-12-04T10:15:28.469Z,4.40
2022-12-04T10:18:07.282Z,4.20
2022-12-04T10:21:04.311Z,4.30
2022-12-04T10:23:42.555Z,4.50
2022-12-04T10:26:16.222Z,4.50
2022-12-04T10:28:54.885Z,4.50
2022-12-04T10:31:23.250Z,4.70
2022-12-04T10:33:54.337Z,4.70
2022-12-04T10:36:25.411Z,4.70
2022-12-04T10:38:57.428Z,4.70
2022-12-04T10:41:30.879Z,4.60
2022-12-04T10:43:58.639Z,4.60
2022-12-04T10:46:28.871Z,4.60
2022-12-04T10:49:00.632Z,4.70
2022-12-04T10:51:39.196Z,4.70
2022-12-04T10:54:17.327Z,4.80
2022-12-04T10:56:53.980Z,4.60
2022-12-04T10:59:22.200Z,4.50
2022-12-04T11:01:51.319Z,4.70
2022-12-04T11:04:24.983Z,4.80
2022-12-04T11:07:01.623Z,4.80
2022-12-04T11:09:30.466Z,4.90
2022-12-04T11:12:09.764Z,4.80
2022-12-04T11:14:37.707Z,4.90
2022-12-04T11:17:07.543Z,4.90
2022-12-04T11:19:36.911Z,4.90
2022-12-04T11:22:15.927Z,4.90
2022-12-04T11:24:50.502Z,4.80
2022-12-04T11:27:23.550Z,4.90
2022-12-04T11:29:52.869Z,5.00
2022-12-04T11:32:24.142Z,5.00
2022-12-04T11:34:55.621Z,4.80
2022-12-04T11:37:27.665Z,4.60
2022-12-04T11:39:56.583Z,4.60
2022-12-04T11:42:27.906Z,4.60
2022-12-04T11:45:33.077Z,4.40
2022-12-04T11:48:03.830Z,4.60
2022-12-04T11:50:40.486Z,4.80
2022-12-04T11:53:16.669Z,4.70
2022-12-04T11:55:54.076Z,4.50
2022-12-04T11:58:47.404Z,4.50
2022-12-04T12:01:28.056Z,4.70
2022-12-04T12:04:21.411Z,4.80
2022-12-04T12:07:05.208Z,4.80
2022-12-04T12:09:43.226Z,4.70
2022-12-04T12:12:18.638Z,4.70
2022-12-04T12:15:00.768Z,4.80
2022-12-04T12:17:43.606Z,4.70
2022-12-04T12:20:22.985Z,4.80
2022-12-04T12:23:08.488Z,4.50
2022-12-04T12:25:50.417Z,4.80
2022-12-04T12:28:37.811Z,4.80
2022-12-04T12:31:29.773Z,4.60
2022-12-04T12:34:21.328Z,4.70
2022-12-04T12:37:20.575Z,4.80
2022-12-04T12:40:21.677Z,4.60
2022-12-04T12:43:01.822Z,4.60
2022-12-04T12:45:37.409Z,4.60
2022-12-04T12:48:13.994Z,4.80
2022-12-04T12:50:49.385Z,4.70
2022-12-04T12:53:28.162Z,4.70
2022-12-04T12:56:20.392Z,4.80
2022-12-04T12:58:54.326Z,4.80
2022-12-04T13:01:29.867Z,4.90
2022-12-04T13:04:04.326Z,4.90
2022-12-04T13:07:12.005Z,5.00
2022-12-04T13:09:46.601Z,4.90
2022-12-04T13:12:17.578Z,4.90
2022-12-04T13:14:49.045Z,4.90
2022-12-04T13:17:21.481Z,4.90
2022-12-04T13:19:57.469Z,4.80
2022-12-04T13:22:31.050Z,4.70
2022-12-04T13:25:12.120Z,4.80
2022-12-04T13:27:51.321Z,4.90
2022-12-04T13:30:21.334Z,5.00
2022-12-04T13:33:19.618Z,4.80
2022-12-04T13:36:03.668Z,4.80
2022-12-04T13:38:39.696Z,4.60
2022-12-04T13:41:10.332Z,4.50
2022-12-04T13:43:47.117Z,4.60
2022-12-04T13:46:31.630Z,4.60
2022-12-04T13:49:09.724Z,4.60
2022-12-04T13:51:41.250Z,4.60
2022-12-04T13:54:30.724Z,4.60
2022-12-04T13:57:10.866Z,4.50
2022-12-04T13:59:41.006Z,4.50
2022-12-04T14:02:25.351Z,4.70
2022-12-04T14:04:57.380Z,4.60
2022-12-04T14:07:30.573Z,4.60
2022-12-04T14:10:01.920Z,4.70
2022-12-04T14:12:58.620Z,4.60
2022-12-04T14:15:29.952Z,4.70
2022-12-04T14:18:01.545Z,4.60
2022-12-04T14:20:34.134Z,4.60
2022-12-04T14:27:51.720Z,4.80
2022-12-04T14:30:22.912Z,4.70
2022-12-04T14:33:02.895Z,4.80
2022-12-04T14:35:30.918Z,4.90
2022-12-04T14:38:02.637Z,5.00
2022-12-04T14:40:37.420Z,4.90
2022-12-04T14:43:26.428Z,4.90
2022-12-04T14:46:27.186Z,5.10
2022-12-04T14:49:00.999Z,5.20
2022-12-04T14:51:34.918Z,5.10
2022-12-04T14:54:14.050Z,5.10
2022-12-04T14:57:14.132Z,5.10
2022-12-04T14:59:49.365Z,5.10
2022-12-04T15:02:19.845Z,5.10
2022-12-04T15:04:49.404Z,5.10
2022-12-04T15:07:22.601Z,5.00
2022-12-04T15:10:13.111Z,5.10
2022-12-04T15:12:46.027Z,5.10
2022-12-04T15:15:22.276Z,5.00
2022-12-04T15:18:17.578Z,5.00
2022-12-04T15:20:57.214Z,5.10
2022-12-04T15:23:33.426Z,5.10
2022-12-04T15:26:08.001Z,5.10
2022-12-04T15:28:42.218Z,5.10
2022-12-04T15:31:16.478Z,5.20
2022-12-04T15:33:47.143Z,5.20
2022-12-04T15:36:19.089Z,5.30
2022-12-04T15:38:48.959Z,5.30
2022-12-04T15:41:32.496Z,5.20
2022-12-04T15:44:00.639Z,5.30
2022-12-04T15:46:36.023Z,5.20
2022-12-04T15:49:27.228Z,5.20
2022-12-04T15:52:06.039Z,5.40
2022-12-04T15:54:43.063Z,5.30
2022-12-04T15:57:33.831Z,5.40
2022-12-04T16:00:11.878Z,5.30
2022-12-04T16:03:03.353Z,5.60
2022-12-04T16:05:53.142Z,5.60
2022-12-04T16:08:31.415Z,5.60
2022-12-04T16:11:19.664Z,5.60
2022-12-04T16:13:49.528Z,5.60
2022-12-04T16:16:31.953Z,5.60
2022-12-04T16:19:05.467Z,5.60
2022-12-04T16:21:33.298Z,5.60
2022-12-04T16:24:05.595Z,5.70
2022-12-04T16:26:55.750Z,5.50
2022-12-04T16:29:24.143Z,5.50
2022-12-04T16:31:52.478Z,5.40
2022-12-04T16:34:21.908Z,5.50
2022-12-04T16:37:21.994Z,5.30
2022-12-04T16:39:52.427Z,5.50
2022-12-04T16:42:22.790Z,5.50
2022-12-04T16:44:51.215Z,5.40
2022-12-04T16:47:19.651Z,5.50
2022-12-04T16:49:51.306Z,5.40
2022-12-04T16:52:20.462Z,5.50
2022-12-04T16:54:48.790Z,5.50
2022-12-04T16:57:16.734Z,5.50
2022-12-04T16:59:44.712Z,5.50
2022-12-04T17:02:21.633Z,5.60
2022-12-04T17:04:57.003Z,5.50
2022-12-04T17:07:25.913Z,5.50
2022-12-04T17:09:53.858Z,5.60
2022-12-04T17:12:21.702Z,5.60
2022-12-04T17:14:49.722Z,5.50
2022-12-04T17:17:17.575Z,5.70
2022-12-04T17:19:46.556Z,5.60
2022-12-04T17:22:16.375Z,5.70
2022-12-04T17:24:50.319Z,5.80
2022-12-04T17:27:20.971Z,5.70
2022-12-04T17:29:49.272Z,5.60
2022-12-04T17:32:17.390Z,5.60
2022-12-04T17:34:45.283Z,5.60
2022-12-04T17:37:13.014Z,5.70
2022-12-04T17:39:42.105Z,5.80
2022-12-04T17:42:09.959Z,5.70
2022-12-04T17:44:37.816Z,5.50
2022-12-04T17:47:06.227Z,5.70
2022-12-04T17:49:40.474Z,5.70
2022-12-04T17:53:11.829Z,5.80
2022-12-04T17:55:41.308Z,5.80
2022-12-04T17:58:09.111Z,5.80
2022-12-04T18:00:37.681Z,5.70
2022-12-04T18:03:05.683Z,5.70
2022-12-04T18:05:33.535Z,5.70
2022-12-04T18:08:03.555Z,5.80
2022-12-04T18:10:31.534Z,5.80
2022-12-04T18:13:00.785Z,5.80
2022-12-04T18:15:28.549Z,5.70
2022-12-04T18:18:47.744Z,5.80
2022-12-04T18:21:23.351Z,5.60
2022-12-04T18:31:42.923Z,5.70
2022-12-04T18:38:39.792Z,5.90
2022-12-04T18:41:17.213Z,5.70
2022-12-04T18:43:59.686Z,5.70
2022-12-04T18:46:43.377Z,5.90
2022-12-04T18:49:12.021Z,5.90
2022-12-04T18:51:41.331Z,6.00
2022-12-04T18:54:12.134Z,6.00
2022-12-04T18:56:40.843Z,6.00
2022-12-04T18:59:11.245Z,6.00
2022-12-04T19:02:27.985Z,5.90
2022-12-04T19:08:35.700Z,5.80
2022-12-04T19:08:43.274Z,5.90
2022-12-04T19:11:23.128Z,5.90
2022-12-04T19:14:00.817Z,5.90
2022-12-04T19:17:10.926Z,5.90
2022-12-04T19:19:44.718Z,6.00
2022-12-04T19:22:25.280Z,6.00
2022-12-04T19:29:16.515Z,5.80
2022-12-04T19:31:57.617Z,6.10
2022-12-04T19:34:28.543Z,6.00
2022-12-04T19:37:06.357Z,5.90
2022-12-04T19:39:49.413Z,6.00
2022-12-04T19:42:39.937Z,6.00
2022-12-04T19:45:37.235Z,6.10
2022-12-04T19:48:12.475Z,6.00
2022-12-04T19:50:42.630Z,6.00
2022-12-04T19:53:10.842Z,5.90
2022-12-04T19:55:43.191Z,6.00
2022-12-04T19:58:11.098Z,6.00
2022-12-04T20:00:56.899Z,6.20
2022-12-04T20:03:24.943Z,6.20
2022-12-04T20:06:03.541Z,6.20
2022-12-04T20:08:31.738Z,6.00
2022-12-04T20:11:03.279Z,6.30
2022-12-04T20:13:31.085Z,6.30
2022-12-04T20:16:05.910Z,6.20
2022-12-04T20:18:34.400Z,6.20
2022-12-04T20:21:04.907Z,6.20
2022-12-04T20:23:32.734Z,6.30
2022-12-04T20:26:05.015Z,6.40
2022-12-04T20:28:32.995Z,6.20
2022-12-04T20:31:01.007Z,6.30
2022-12-04T20:33:28.848Z,6.20
2022-12-04T20:35:56.837Z,6.20
2022-12-04T20:38:26.141Z,6.20
2022-12-04T20:40:53.881Z,6.20
2022-12-04T20:43:21.706Z,6.30
2022-12-04T20:45:49.605Z,6.30
2022-12-04T20:48:17.634Z,6.30
2022-12-04T20:50:46.097Z,6.30
2022-12-04T20:53:58.089Z,6.30
2022-12-04T20:56:30.061Z,6.30
2022-12-04T20:58:59.225Z,6.30
2022-12-04T21:01:29.915Z,6.40
2022-12-04T21:04:01.941Z,6.30
2022-12-04T21:06:34.915Z,6.30
2022-12-04T21:09:05.796Z,6.20
2022-12-04T21:12:32.389Z,6.20
2022-12-04T21:15:32.740Z,6.30
2022-12-04T21:18:29.288Z,6.50
2022-12-04T21:20:59.829Z,6.10
2022-12-04T21:23:27.666Z,6.30
2022-12-04T21:25:56.651Z,6.30
2022-12-04T21:28:25.897Z,6.40
2022-12-04T21:30:53.882Z,6.50
2022-12-04T21:33:21.825Z,6.50
2022-12-04T21:35:49.617Z,6.40
2022-12-04T21:38:17.444Z,6.50
2022-12-04T21:40:48.881Z,6.50
2022-12-04T21:43:16.722Z,6.60
2022-12-04T21:45:46.606Z,6.80
2022-12-04T21:48:14.499Z,6.90
2022-12-04T21:50:42.322Z,6.80
2022-12-04T21:53:10.104Z,6.80
2022-12-04T21:55:38.076Z,6.90
2022-12-04T21:58:05.897Z,6.90
2022-12-04T22:00:33.761Z,7.20
2022-12-04T22:03:03.249Z,7.20
2022-12-04T22:05:32.722Z,7.30
2022-12-04T22:08:00.677Z,7.30
2022-12-04T22:10:28.645Z,7.30
2022-12-04T22:12:56.447Z,7.00
2022-12-04T22:15:24.319Z,6.90
2022-12-04T22:17:52.301Z,7.00
2022-12-04T22:20:22.795Z,6.90
2022-12-04T22:22:50.614Z,7.00
2022-12-04T22:25:18.580Z,6.90
2022-12-04T22:27:46.362Z,6.80
2022-12-04T22:30:14.709Z,6.80
2022-12-04T22:32:42.681Z,6.70
2022-12-04T22:35:11.033Z,6.70
2022-12-04T22:37:44.340Z,6.60
2022-12-04T22:40:13.968Z,6.70
2022-12-04T22:42:41.783Z,6.70
2022-12-04T22:45:10.377Z,6.60
2022-12-04T22:47:38.666Z,6.50
2022-12-04T22:50:07.902Z,6.50
2022-12-04T22:52:35.747Z,6.60
2022-12-04T22:55:06.063Z,6.60
2022-12-04T22:57:35.275Z,6.60
2022-12-04T23:00:04.156Z,6.60
2022-12-04T23:02:31.969Z,6.50
2022-12-04T23:04:59.904Z,6.60
2022-12-04T23:07:27.834Z,6.60
2022-12-04T23:09:57.409Z,6.60
2022-12-04T23:12:28.782Z,6.70
2022-12-04T23:14:56.624Z,6.60
2022-12-04T23:17:24.446Z,6.60
2022-12-04T23:19:52.349Z,6.50
2022-12-04T23:22:20.244Z,6.50
2022-12-04T23:24:48.224Z,6.50
2022-12-04T23:27:15.977Z,6.60
2022-12-04T23:29:53.223Z,6.60
2022-12-04T23:32:21.483Z,6.60
2022-12-04T23:34:49.383Z,6.60
2022-12-04T23:37:17.307Z,6.60
2022-12-04T23:39:45.425Z,6.70
2022-12-04T23:42:13.285Z,6.70
2022-12-04T23:44:41.139Z,6.60
2022-12-04T23:47:23.313Z,6.60
2022-12-04T23:50:00.151Z,6.50
2022-12-04T23:52:48.417Z,6.50
2022-12-04T23:55:16.520Z,6.60
2022-12-04T23:57:44.349Z,6.60
